KSAN

San Diego International Airport

San Diego, California, USA
METAR KSAN 220351Z 31008KT 10SM FEW036 15/06 A3011 RMK AO2 SLP195 T01500061
Observed Flight Rules
Jan-22 @ 03:51 UTC (27 minutes ago) Visual Flight Rules
Wind Visibility Clouds
310° at 8 knots 10 miles
  • Few at 3,600' AGL
Temperatures Readings
Current 15°C / 59°F
Dewpoint 6°C / 43°F
Humidity 55%
Altimeter 30.11" Hg
Pressure 1019.5 hPa
Elevation 12
METAR KSAN 220351Z 31008KT 10SM FEW036 15/06 A3011 RMK AO2 SLP195 T01500061
Observed Flight Rules
Jan-22 @ 03:51 UTC
(27 minutes ago)
VFR
Wind Visibility
310° at 8 knots 10 miles
Clouds
  • Few at 3,600' AGL
Temperature Dewpoint
15°C / 59°F 6°C / 43°F
Humidity Altimeter Pressure
55% 30.11" Hg 1019.5 hPa